createdAt,value
2023-03-08T00:02:20.977Z,78.61
2023-03-08T00:04:57.409Z,78.23
2023-03-08T00:07:29.910Z,78.87
2023-03-08T00:10:02.407Z,79.80
2023-03-08T00:12:37.506Z,79.57
2023-03-08T00:15:11.422Z,78.89
2023-03-08T00:17:44.130Z,78.40
2023-03-08T00:20:17.043Z,78.88
2023-03-08T00:22:49.439Z,78.19
2023-03-08T00:25:21.975Z,78.22
2023-03-08T00:27:54.543Z,78.62
2023-03-08T00:30:27.354Z,78.78
2023-03-08T00:33:00.823Z,78.66
2023-03-08T00:35:33.237Z,78.60
2023-03-08T00:38:05.701Z,78.12
2023-03-08T00:40:38.967Z,78.06
2023-03-08T00:43:11.447Z,78.24
2023-03-08T00:45:43.992Z,77.79
2023-03-08T00:48:16.826Z,77.44
2023-03-08T00:50:51.406Z,76.98
2023-03-08T00:53:23.954Z,77.82
2023-03-08T00:55:57.795Z,78.17
2023-03-08T00:58:31.697Z,77.85
2023-03-08T01:01:04.750Z,77.45
2023-03-08T01:03:37.731Z,77.32
2023-03-08T01:06:15.703Z,77.76
2023-03-08T01:08:48.169Z,78.25
2023-03-08T01:11:23.017Z,78.03
2023-03-08T01:13:55.060Z,78.23
2023-03-08T01:16:30.799Z,77.89
2023-03-08T01:19:06.307Z,77.92
2023-03-08T01:21:39.776Z,78.19
2023-03-08T01:24:12.289Z,77.66
2023-03-08T01:26:44.731Z,77.41
2023-03-08T01:29:17.218Z,77.04
2023-03-08T01:31:50.130Z,76.69
2023-03-08T01:34:23.315Z,76.89
2023-03-08T01:36:55.807Z,77.30
2023-03-08T01:39:28.269Z,76.76
2023-03-08T01:42:00.859Z,76.59
2023-03-08T01:44:52.311Z,76.46
2023-03-08T01:47:27.372Z,76.22
2023-03-08T01:50:25.980Z,76.42
2023-03-08T01:52:59.979Z,76.29
2023-03-08T01:55:32.654Z,77.18
2023-03-08T01:58:09.082Z,77.14
2023-03-08T02:00:42.435Z,77.21
2023-03-08T02:03:15.425Z,76.66
2023-03-08T02:05:51.874Z,76.71
2023-03-08T02:08:27.044Z,76.83
2023-03-08T02:11:01.561Z,76.97
2023-03-08T02:13:34.361Z,77.04
2023-03-08T02:16:11.249Z,77.00
2023-03-08T02:18:54.846Z,77.08
2023-03-08T02:21:28.694Z,77.63
2023-03-08T02:24:07.244Z,78.22
2023-03-08T02:26:40.127Z,78.01
2023-03-08T02:29:12.493Z,78.25
2023-03-08T02:31:44.918Z,77.68
2023-03-08T02:34:17.518Z,77.72
2023-03-08T02:36:49.923Z,77.80
2023-03-08T02:39:23.621Z,77.61
2023-03-08T02:41:56.425Z,77.94
2023-03-08T02:44:28.812Z,76.99
2023-03-08T02:47:01.299Z,76.90
2023-03-08T02:49:35.211Z,77.13
2023-03-08T02:52:08.971Z,76.70
2023-03-08T02:54:41.331Z,76.80
2023-03-08T02:57:14.045Z,76.71
2023-03-08T02:59:46.497Z,77.03
2023-03-08T03:02:20.249Z,77.04
2023-03-08T03:04:52.903Z,77.31
2023-03-08T03:07:25.237Z,76.92
2023-03-08T03:09:57.962Z,77.10
2023-03-08T03:12:31.263Z,76.40
2023-03-08T03:15:03.853Z,76.57
2023-03-08T03:17:38.155Z,76.89
2023-03-08T03:20:13.182Z,76.47
2023-03-08T03:22:47.257Z,76.54
2023-03-08T03:25:20.244Z,76.85
2023-03-08T03:27:53.976Z,77.13
2023-03-08T03:30:26.498Z,77.32
2023-03-08T03:32:59.321Z,77.24
2023-03-08T03:35:34.402Z,77.35
2023-03-08T03:38:06.947Z,77.79
2023-03-08T03:40:39.524Z,77.43
2023-03-08T03:43:12.255Z,77.65
2023-03-08T03:45:44.639Z,77.69
2023-03-08T03:48:17.414Z,77.92
2023-03-08T03:50:58.246Z,78.36
2023-03-08T03:53:32.823Z,78.64
2023-03-08T03:56:07.928Z,78.08
2023-03-08T03:58:40.427Z,77.60
2023-03-08T04:01:16.426Z,77.72
2023-03-08T04:03:49.301Z,77.68
2023-03-08T04:06:29.332Z,77.78
2023-03-08T04:09:04.316Z,77.90
2023-03-08T04:11:40.103Z,78.30
2023-03-08T04:14:14.306Z,78.23
2023-03-08T04:16:47.037Z,78.41
2023-03-08T04:19:26.489Z,78.46
2023-03-08T04:21:59.869Z,78.10
2023-03-08T04:24:35.161Z,77.91
2023-03-08T04:27:09.957Z,76.87
2023-03-08T04:29:42.648Z,76.82
2023-03-08T04:32:15.386Z,77.42
2023-03-08T04:34:51.972Z,77.58
2023-03-08T04:37:26.009Z,77.22
2023-03-08T04:40:01.107Z,77.58
2023-03-08T04:42:35.808Z,77.59
2023-03-08T04:45:11.741Z,77.33
2023-03-08T04:47:45.136Z,76.77
2023-03-08T04:50:18.494Z,76.69
2023-03-08T04:52:54.582Z,76.40
2023-03-08T04:55:27.338Z,76.66
2023-03-08T04:58:00.190Z,76.20
2023-03-08T05:00:34.242Z,76.43
2023-03-08T05:03:07.439Z,76.28
2023-03-08T05:05:40.057Z,75.85
2023-03-08T05:08:12.679Z,76.23
2023-03-08T05:10:50.934Z,76.21
2023-03-08T05:13:26.499Z,75.44
2023-03-08T05:15:59.078Z,75.18
2023-03-08T05:18:34.011Z,74.75
2023-03-08T05:21:11.296Z,74.86
2023-03-08T05:23:45.252Z,76.12
2023-03-08T05:26:19.926Z,76.11
2023-03-08T05:28:57.368Z,76.15
2023-03-08T05:31:35.197Z,75.77
2023-03-08T05:34:13.067Z,74.78
2023-03-08T05:36:47.509Z,75.06
2023-03-08T05:39:22.292Z,74.99
2023-03-08T05:42:00.995Z,75.26
2023-03-08T05:44:40.183Z,74.80
2023-03-08T05:47:13.443Z,75.09
2023-03-08T05:49:46.251Z,75.08
2023-03-08T05:52:23.200Z,75.54
2023-03-08T05:54:57.778Z,75.21
2023-03-08T05:57:30.783Z,74.71
2023-03-08T06:00:04.784Z,74.69
2023-03-08T06:02:48.229Z,74.75
2023-03-08T06:05:25.577Z,74.44
2023-03-08T06:08:01.343Z,74.13
2023-03-08T06:10:34.503Z,74.16
2023-03-08T06:13:09.305Z,74.35
2023-03-08T06:15:42.104Z,74.29
2023-03-08T06:18:14.813Z,74.21
2023-03-08T06:20:55.817Z,73.92
2023-03-08T06:23:29.448Z,74.06
2023-03-08T06:26:04.744Z,74.14
2023-03-08T06:28:40.420Z,74.52
2023-03-08T06:31:16.158Z,74.65
2023-03-08T06:33:51.272Z,74.29
2023-03-08T06:36:26.788Z,74.00
2023-03-08T06:39:01.117Z,74.42
2023-03-08T06:41:34.315Z,74.12
2023-03-08T06:44:08.942Z,73.65
2023-03-08T06:46:41.636Z,73.27
2023-03-08T06:49:14.225Z,73.45
2023-03-08T06:51:46.786Z,73.77
2023-03-08T06:54:19.875Z,73.68
2023-03-08T06:56:55.470Z,74.17
2023-03-08T06:59:28.876Z,73.84
2023-03-08T07:02:01.467Z,73.40
2023-03-08T07:04:33.993Z,72.28
2023-03-08T07:07:07.999Z,72.89
2023-03-08T07:09:40.761Z,72.06
2023-03-08T07:12:13.238Z,72.32
2023-03-08T07:14:45.667Z,72.20
2023-03-08T07:17:19.726Z,72.38
2023-03-08T07:19:52.147Z,72.69
2023-03-08T07:22:24.574Z,72.73
2023-03-08T07:24:57.030Z,72.74
2023-03-08T07:27:29.848Z,72.68
2023-03-08T07:30:02.505Z,72.34
2023-03-08T07:32:34.902Z,72.84
2023-03-08T07:35:09.566Z,72.44
2023-03-08T07:37:42.576Z,73.11
2023-03-08T07:40:19.482Z,72.45
2023-03-08T07:42:51.913Z,71.91
2023-03-08T07:46:03.251Z,72.35
2023-03-08T07:48:35.937Z,71.94
2023-03-08T07:51:10.690Z,72.25
2023-03-08T07:53:43.104Z,71.85
2023-03-08T07:56:16.081Z,71.71
2023-03-08T07:58:48.800Z,71.91
2023-03-08T08:01:21.679Z,71.33
2023-03-08T08:03:54.105Z,71.26
2023-03-08T08:06:26.753Z,71.27
2023-03-08T08:08:59.515Z,71.25
2023-03-08T08:11:32.169Z,71.32
2023-03-08T08:14:05.368Z,71.14
2023-03-08T08:16:38.675Z,70.12
2023-03-08T08:19:14.702Z,69.51
2023-03-08T08:21:48.045Z,69.00
2023-03-08T08:24:20.903Z,68.64
2023-03-08T08:26:53.416Z,68.62
2023-03-08T08:29:26.127Z,68.44
2023-03-08T08:31:59.569Z,68.14
2023-03-08T08:34:32.080Z,67.81
2023-03-08T08:37:05.085Z,67.95
2023-03-08T08:39:37.809Z,67.66
2023-03-08T08:42:10.686Z,67.58
2023-03-08T08:44:43.192Z,67.19
2023-03-08T08:47:15.624Z,67.19
2023-03-08T08:49:48.230Z,67.23
2023-03-08T08:52:20.676Z,66.00
2023-03-08T08:54:55.045Z,66.49
2023-03-08T08:57:27.770Z,67.35
2023-03-08T09:00:00.494Z,67.26
2023-03-08T09:02:33.373Z,67.69
2023-03-08T09:05:06.168Z,68.92
2023-03-08T09:07:39.348Z,68.80
2023-03-08T09:10:13.881Z,67.92
2023-03-08T09:12:46.429Z,67.46
2023-03-08T09:15:19.206Z,68.01
2023-03-08T09:17:52.129Z,68.11
2023-03-08T09:20:25.587Z,68.12
2023-03-08T09:22:58.222Z,67.46
2023-03-08T09:25:30.528Z,67.03
2023-03-08T09:28:03.118Z,66.40
2023-03-08T09:30:35.655Z,65.87
2023-03-08T09:33:08.703Z,64.47
2023-03-08T09:35:41.219Z,64.39
2023-03-08T09:38:13.742Z,65.63
2023-03-08T09:40:57.599Z,66.41
2023-03-08T09:43:41.634Z,66.43
2023-03-08T09:46:17.459Z,67.21
2023-03-08T09:48:52.773Z,66.88
2023-03-08T09:51:29.554Z,65.35
2023-03-08T09:54:06.844Z,65.17
2023-03-08T09:56:43.638Z,64.82
2023-03-08T09:59:20.579Z,64.92
2023-03-08T10:02:03.428Z,65.23
2023-03-08T10:05:05.893Z,65.17
2023-03-08T10:07:50.400Z,64.65
2023-03-08T10:10:42.569Z,65.46
2023-03-08T10:13:32.126Z,66.49
2023-03-08T10:16:17.738Z,65.38
2023-03-08T10:18:57.826Z,64.85
2023-03-08T10:21:32.662Z,64.20
2023-03-08T10:24:06.657Z,64.50
2023-03-08T10:26:39.520Z,64.94
2023-03-08T10:29:14.820Z,64.12
2023-03-08T10:31:48.203Z,63.86
2023-03-08T10:34:25.160Z,64.71
2023-03-08T10:37:01.970Z,63.95
2023-03-08T10:39:36.358Z,64.49
2023-03-08T10:42:17.870Z,61.23
2023-03-08T10:44:59.598Z,59.91
2023-03-08T10:47:33.602Z,60.61
2023-03-08T10:50:16.682Z,60.44
2023-03-08T10:52:51.237Z,58.94
2023-03-08T10:55:25.627Z,61.53
2023-03-08T10:58:00.051Z,61.52
2023-03-08T11:00:33.677Z,61.73
2023-03-08T11:03:15.445Z,61.77
2023-03-08T11:05:59.772Z,61.11
2023-03-08T11:08:35.665Z,61.97
2023-03-08T11:11:11.638Z,61.77
2023-03-08T11:13:47.130Z,61.04
2023-03-08T11:16:32.378Z,59.86
2023-03-08T11:19:25.355Z,58.11
2023-03-08T11:22:04.997Z,58.05
2023-03-08T11:24:53.245Z,57.84
2023-03-08T11:27:38.875Z,58.50
2023-03-08T11:30:25.537Z,60.17
2023-03-08T11:33:18.526Z,60.45
2023-03-08T11:35:58.300Z,59.89
2023-03-08T11:38:33.038Z,60.11
2023-03-08T11:41:20.688Z,60.16
2023-03-08T11:44:16.759Z,60.78
2023-03-08T11:47:01.978Z,61.33
2023-03-08T11:49:49.420Z,61.22
2023-03-08T11:52:34.012Z,61.66
2023-03-08T11:55:33.150Z,61.66
2023-03-08T11:58:13.133Z,60.77
2023-03-08T12:00:47.929Z,61.00
2023-03-08T12:03:24.681Z,60.92
2023-03-08T12:06:00.948Z,61.48
2023-03-08T12:08:40.109Z,61.92
2023-03-08T12:11:18.285Z,62.21
2023-03-08T12:13:54.493Z,62.38
2023-03-08T12:16:32.048Z,61.67
2023-03-08T12:19:15.637Z,61.11
2023-03-08T12:21:57.768Z,61.63
2023-03-08T12:24:47.960Z,61.60
2023-03-08T12:27:27.485Z,61.21
2023-03-08T12:30:06.258Z,61.01
2023-03-08T12:32:41.069Z,60.89
2023-03-08T12:35:29.537Z,60.60
2023-03-08T12:38:07.718Z,60.43
2023-03-08T12:40:44.432Z,59.40
2023-03-08T12:43:30.087Z,59.25
2023-03-08T12:46:09.300Z,58.08
2023-03-08T12:48:51.244Z,58.20
2023-03-08T12:51:34.162Z,58.37
2023-03-08T12:54:07.677Z,57.81
2023-03-08T12:56:51.573Z,57.00
2023-03-08T12:59:41.447Z,57.44
2023-03-08T13:02:35.872Z,57.78
2023-03-08T13:05:21.095Z,57.62
2023-03-08T13:08:17.362Z,55.96
2023-03-08T13:11:04.308Z,56.42
2023-03-08T13:13:45.383Z,56.46
2023-03-08T13:16:33.929Z,55.98
2023-03-08T13:19:23.841Z,55.71
2023-03-08T13:22:05.556Z,56.65
2023-03-08T13:24:45.414Z,55.97
2023-03-08T13:27:34.568Z,56.47
2023-03-08T13:30:25.003Z,56.26
2023-03-08T13:32:58.042Z,56.42
2023-03-08T13:35:30.604Z,57.11
2023-03-08T13:38:03.384Z,56.80
2023-03-08T13:40:36.163Z,57.02
2023-03-08T13:43:15.466Z,56.77
2023-03-08T13:45:52.240Z,56.65
2023-03-08T13:48:29.568Z,56.63
2023-03-08T13:51:03.071Z,56.58
2023-03-08T13:53:40.457Z,56.46
2023-03-08T13:56:24.448Z,56.76
2023-03-08T13:58:59.032Z,56.88
2023-03-08T14:01:30.003Z,56.81
2023-03-08T14:04:12.003Z,57.09
2023-03-08T14:06:52.934Z,57.24
2023-03-08T14:09:26.581Z,57.40
2023-03-08T14:12:04.532Z,58.06
2023-03-08T14:14:40.927Z,57.99
2023-03-08T14:17:22.691Z,58.00
2023-03-08T14:20:01.124Z,58.22
2023-03-08T14:22:40.119Z,58.22
2023-03-08T14:25:25.452Z,57.67
2023-03-08T14:27:58.626Z,57.22
2023-03-08T14:30:32.504Z,57.50
2023-03-08T14:33:20.233Z,57.96
2023-03-08T14:36:00.119Z,57.83
2023-03-08T14:38:34.636Z,57.85
2023-03-08T14:41:08.307Z,57.51
2023-03-08T14:43:41.073Z,57.50
2023-03-08T14:46:22.055Z,57.52
2023-03-08T14:49:03.264Z,58.31
2023-03-08T14:51:42.390Z,58.72
2023-03-08T14:54:30.443Z,60.15
2023-03-08T14:57:09.799Z,60.98
2023-03-08T14:59:44.307Z,61.58
2023-03-08T15:02:18.996Z,62.88
2023-03-08T15:04:50.112Z,63.12
2023-03-08T15:07:25.047Z,63.14
2023-03-08T15:09:57.496Z,63.98
2023-03-08T15:12:30.449Z,64.58
2023-03-08T15:15:03.116Z,64.78
2023-03-08T15:17:35.790Z,65.10
2023-03-08T15:20:10.652Z,64.98
2023-03-08T15:22:44.310Z,65.42
2023-03-08T15:25:20.934Z,65.86
2023-03-08T15:27:54.794Z,66.23
2023-03-08T15:30:29.227Z,66.95
2023-03-08T15:33:02.761Z,67.24
2023-03-08T15:35:35.416Z,67.19
2023-03-08T15:38:08.152Z,66.80
2023-03-08T15:40:40.808Z,67.00
2023-03-08T15:43:13.650Z,67.02
2023-03-08T15:45:46.844Z,67.12
2023-03-08T15:48:20.462Z,67.61
2023-03-08T15:50:53.094Z,67.82
2023-03-08T15:53:34.924Z,67.88
2023-03-08T15:56:08.202Z,68.32
2023-03-08T15:58:40.790Z,68.61
2023-03-08T16:01:13.626Z,68.57
2023-03-08T16:03:46.784Z,68.64
2023-03-08T16:06:19.587Z,68.95
2023-03-08T16:08:52.236Z,68.95
2023-03-08T16:11:24.991Z,68.94
2023-03-08T16:13:57.671Z,68.93
2023-03-08T16:16:44.456Z,68.81
2023-03-08T16:19:18.320Z,68.90
2023-03-08T16:21:52.846Z,68.82
2023-03-08T16:24:25.519Z,68.87
2023-03-08T16:26:59.434Z,69.06
2023-03-08T16:29:32.467Z,68.99
2023-03-08T16:32:05.285Z,69.27
2023-03-08T16:34:37.976Z,69.55
2023-03-08T16:37:10.593Z,69.56
2023-03-08T16:39:43.048Z,69.65
2023-03-08T16:42:16.668Z,69.66
2023-03-08T16:44:53.566Z,69.73
2023-03-08T16:47:27.249Z,69.68
2023-03-08T16:50:00.719Z,69.70
2023-03-08T16:52:33.626Z,69.96
2023-03-08T16:55:07.093Z,70.29
2023-03-08T16:57:40.286Z,70.32
2023-03-08T17:00:15.680Z,70.31
2023-03-08T17:02:48.195Z,70.35
2023-03-08T17:05:21.175Z,70.15
2023-03-08T17:07:54.071Z,69.99
2023-03-08T17:10:26.657Z,69.74
2023-03-08T17:12:59.201Z,69.79
2023-03-08T17:15:31.803Z,69.93
2023-03-08T17:18:04.326Z,69.87
2023-03-08T17:20:39.517Z,69.57
2023-03-08T17:23:13.634Z,69.96
2023-03-08T17:25:46.473Z,69.89
2023-03-08T17:28:19.310Z,70.01
2023-03-08T17:30:52.607Z,70.15
2023-03-08T17:33:26.130Z,69.85
2023-03-08T17:36:02.142Z,69.52
2023-03-08T17:38:35.610Z,69.66
2023-03-08T17:41:10.841Z,69.96
2023-03-08T17:43:43.913Z,70.30
2023-03-08T17:46:18.569Z,70.58
2023-03-08T17:48:50.561Z,70.76
2023-03-08T17:51:25.765Z,70.71
2023-03-08T17:54:01.290Z,71.19
2023-03-08T17:56:36.703Z,71.21
2023-03-08T17:59:09.643Z,71.14
2023-03-08T18:01:42.864Z,71.06
2023-03-08T18:04:15.899Z,71.17
2023-03-08T18:06:48.919Z,71.41
2023-03-08T18:09:21.563Z,71.40
2023-03-08T18:11:54.302Z,71.43
2023-03-08T18:14:39.296Z,71.62
2023-03-08T18:17:14.329Z,71.52
2023-03-08T18:19:47.575Z,71.46
2023-03-08T18:22:20.555Z,71.43
2023-03-08T18:24:53.536Z,71.45
2023-03-08T18:27:26.067Z,71.53
2023-03-08T18:29:59.018Z,71.69
2023-03-08T18:32:31.954Z,71.48
2023-03-08T18:35:04.951Z,71.68
2023-03-08T18:37:38.100Z,71.79
2023-03-08T18:40:15.564Z,71.96
2023-03-08T18:42:48.394Z,72.16
2023-03-08T18:45:21.048Z,72.21
2023-03-08T18:47:53.857Z,72.18
2023-03-08T18:50:27.784Z,72.10
2023-03-08T18:53:01.074Z,72.41
2023-03-08T18:55:33.952Z,72.45
2023-03-08T18:58:06.767Z,72.43
2023-03-08T19:00:39.354Z,72.35
2023-03-08T19:03:11.970Z,72.43
2023-03-08T19:05:44.878Z,72.77
2023-03-08T19:08:17.317Z,72.77
2023-03-08T19:10:50.256Z,72.71
2023-03-08T19:13:23.357Z,72.72
2023-03-08T19:15:56.092Z,72.74
2023-03-08T19:18:28.846Z,72.80
2023-03-08T19:21:01.666Z,72.69
2023-03-08T19:23:34.437Z,72.74
2023-03-08T19:26:32.535Z,72.77
2023-03-08T19:29:07.866Z,72.66
2023-03-08T19:31:42.106Z,72.56
2023-03-08T19:34:15.770Z,72.80
2023-03-08T19:36:49.760Z,72.82
2023-03-08T19:39:24.777Z,72.92
2023-03-08T19:41:59.812Z,72.82
2023-03-08T19:44:33.204Z,73.00
2023-03-08T19:47:06.396Z,73.01
2023-03-08T19:49:40.782Z,72.95
2023-03-08T19:52:14.038Z,73.03
2023-03-08T19:54:46.782Z,72.96
2023-03-08T19:57:20.220Z,73.23
2023-03-08T19:59:53.083Z,73.13
2023-03-08T20:02:25.701Z,73.29
2023-03-08T20:04:58.357Z,73.10
2023-03-08T20:07:31.649Z,73.06
2023-03-08T20:10:15.447Z,73.08
2023-03-08T20:12:47.956Z,72.98
2023-03-08T20:15:20.818Z,73.18
2023-03-08T20:17:53.874Z,73.02
2023-03-08T20:20:26.331Z,73.12
2023-03-08T20:22:59.248Z,73.11
2023-03-08T20:25:32.183Z,73.24
2023-03-08T20:28:06.030Z,73.06
2023-03-08T20:30:38.821Z,72.92
2023-03-08T20:33:12.592Z,72.88
2023-03-08T20:35:47.162Z,72.89
2023-03-08T20:38:18.224Z,72.93
2023-03-08T20:41:01.492Z,73.12
2023-03-08T20:43:34.678Z,73.34
2023-03-08T20:46:09.484Z,73.09
2023-03-08T20:48:43.888Z,73.10
2023-03-08T20:51:19.636Z,73.22
2023-03-08T20:53:54.215Z,73.20
2023-03-08T20:56:28.335Z,73.14
2023-03-08T20:59:01.764Z,73.17
2023-03-08T21:01:35.459Z,73.10
2023-03-08T21:04:09.550Z,73.26
2023-03-08T21:06:42.337Z,73.07
2023-03-08T21:09:15.778Z,73.08
2023-03-08T21:11:48.287Z,73.19
2023-03-08T21:14:20.935Z,73.30
2023-03-08T21:16:53.351Z,73.25
2023-03-08T21:19:26.041Z,73.31
2023-03-08T21:21:58.479Z,73.25
2023-03-08T21:24:31.820Z,73.24
2023-03-08T21:27:07.241Z,73.42
2023-03-08T21:29:40.078Z,73.43
2023-03-08T21:32:13.611Z,73.57
2023-03-08T21:34:47.737Z,73.44
2023-03-08T21:37:20.771Z,73.41
2023-03-08T21:39:54.850Z,73.43
2023-03-08T21:42:26.190Z,73.48
2023-03-08T21:44:59.365Z,73.36
2023-03-08T21:47:31.851Z,73.51
2023-03-08T21:50:04.545Z,73.52
2023-03-08T21:52:37.209Z,73.50
2023-03-08T21:55:10.852Z,73.48
2023-03-08T21:57:43.527Z,73.52
2023-03-08T22:00:18.985Z,73.57
2023-03-08T22:02:54.945Z,73.78
2023-03-08T22:05:29.446Z,73.75
2023-03-08T22:08:02.033Z,73.87
2023-03-08T22:10:34.682Z,73.71
2023-03-08T22:13:07.054Z,73.73
2023-03-08T22:15:39.838Z,73.54
2023-03-08T22:18:12.561Z,73.61
2023-03-08T22:20:46.069Z,73.73
2023-03-08T22:23:18.787Z,73.71
2023-03-08T22:25:51.586Z,73.52
2023-03-08T22:28:24.299Z,73.66
2023-03-08T22:30:57.133Z,73.75
2023-03-08T22:33:32.741Z,73.71
2023-03-08T22:36:07.772Z,73.86
2023-03-08T22:38:41.096Z,73.81
2023-03-08T22:41:15.875Z,73.81
2023-03-08T22:43:49.065Z,73.80
2023-03-08T22:46:23.589Z,73.71
2023-03-08T22:48:56.976Z,73.78
2023-03-08T22:51:29.765Z,73.79
2023-03-08T22:54:04.120Z,73.71
2023-03-08T22:56:39.576Z,73.73
2023-03-08T22:59:13.224Z,73.81
2023-03-08T23:01:46.006Z,73.64
2023-03-08T23:04:18.467Z,73.62
2023-03-08T23:06:51.692Z,73.59
2023-03-08T23:09:24.569Z,73.55
2023-03-08T23:11:58.239Z,73.70
2023-03-08T23:14:30.806Z,73.64
2023-03-08T23:17:03.808Z,73.72
2023-03-08T23:19:37.530Z,73.85
2023-03-08T23:22:10.018Z,73.69
2023-03-08T23:24:42.464Z,73.54
2023-03-08T23:27:15.061Z,73.92
2023-03-08T23:29:48.089Z,73.99
2023-03-08T23:32:21.364Z,74.02
2023-03-08T23:34:53.772Z,74.07
2023-03-08T23:37:26.553Z,73.92
2023-03-08T23:39:59.591Z,73.88
2023-03-08T23:42:32.350Z,73.92
2023-03-08T23:45:05.066Z,74.13
2023-03-08T23:47:38.515Z,74.03
2023-03-08T23:50:12.752Z,74.09
2023-03-08T23:52:45.251Z,73.94
2023-03-08T23:55:17.753Z,73.89
2023-03-08T23:57:52.872Z,73.79
